Time;durP1;ratioP1;P1;durP2;ratioP2;P2;SDS_P1;SDS_P2;PMS_P1;PMS_P2;Temp;Humidity;BMP_temperature;BMP_pressure;BME280_temperature;BME280_humidity;BME280_pressure;Samples;Min_cycle;Max_cycle;Signal;HPM_P1;HPM_P2
2023/09/03 00:00:47;;;;;;;8.00;7.20;;;22.00;81.20;;;22.52;53.44;95470.94;5027174;28;20456;-58
2023/09/03 00:03:14;;;;;;;10.03;8.27;;;22.00;81.30;;;22.50;53.14;95475.69;5039952;28;20493;-74
2023/09/03 00:05:49;;;;;;;9.80;7.93;;;22.00;81.70;;;22.47;53.27;95473.41;5036718;28;20448;-74
2023/09/03 00:08:16;;;;;;;9.17;6.90;;;21.90;81.70;;;22.47;53.84;95469.91;5036578;28;20471;-74
2023/09/03 00:10:43;;;;;;;8.37;6.90;;;21.90;81.80;;;22.45;53.50;95466.56;5040854;28;20464;-71
2023/09/03 00:13:11;;;;;;;11.60;8.30;;;21.90;81.80;;;22.44;53.79;95476.47;5043187;28;20865;-57
2023/09/03 00:15:40;;;;;;;9.43;8.37;;;21.90;82.20;;;22.41;53.82;95476.88;5036685;28;20552;-72
2023/09/03 00:18:08;;;;;;;8.47;7.67;;;21.90;82.50;;;22.38;53.44;95472.75;5031391;28;20532;-57
2023/09/03 00:20:35;;;;;;;12.60;8.23;;;21.80;82.30;;;22.36;53.95;95476.66;5035516;28;20483;-75
2023/09/03 00:23:03;;;;;;;7.40;6.80;;;21.80;82.70;;;22.32;53.81;95476.25;5042940;28;20948;-57
2023/09/03 00:25:35;;;;;;;8.33;7.53;;;21.80;83.00;;;22.29;54.32;95475.75;5038544;28;20988;-60
2023/09/03 00:28:02;;;;;;;8.77;8.00;;;21.70;83.30;;;22.27;53.95;95485.84;5035405;28;20448;-75
2023/09/03 00:30:29;;;;;;;8.83;8.03;;;21.70;83.70;;;22.24;54.42;95488.94;5040457;28;20882;-56
2023/09/03 00:32:58;;;;;;;8.87;8.17;;;21.70;83.60;;;22.18;53.99;95491.38;5039978;28;20483;-73
2023/09/03 00:35:25;;;;;;;9.00;8.10;;;21.70;83.10;;;22.10;53.93;95499.56;5036554;28;20448;-56
2023/09/03 00:37:53;;;;;;;10.23;8.30;;;21.60;83.10;;;22.02;54.31;95497.03;5040369;28;20448;-58
2023/09/03 00:40:20;;;;;;;14.30;8.20;;;21.50;83.40;;;21.97;54.04;95499.47;5038083;28;20548;-74
2023/09/03 00:42:47;;;;;;;9.50;8.50;;;21.50;83.50;;;21.88;54.55;95495.28;5039265;28;21425;-74
2023/09/03 00:45:15;;;;;;;8.33;7.60;;;21.40;84.80;;;21.78;54.93;95493.78;5036316;28;20550;-59
2023/09/03 00:47:42;;;;;;;14.20;7.83;;;21.30;84.80;;;21.73;55.19;95487.34;5038404;28;20452;-74
2023/09/03 00:50:11;;;;;;;11.63;9.37;;;21.30;85.80;;;21.69;55.13;95492.28;5034595;28;20534;-56
2023/09/03 00:52:38;;;;;;;9.97;8.97;;;21.20;86.00;;;21.64;55.24;95492.00;5036215;28;20558;-74
2023/09/03 00:55:06;;;;;;;9.57;8.77;;;21.10;86.30;;;21.63;55.68;95485.00;5038922;28;20468;-73
2023/09/03 00:57:34;;;;;;;9.90;8.93;;;21.10;86.90;;;21.63;55.40;95480.47;5044833;28;20448;-57
2023/09/03 01:00:01;;;;;;;9.07;8.30;;;21.10;87.30;;;21.64;55.62;95481.28;5037856;28;20488;-74
2023/09/03 01:02:28;;;;;;;10.00;8.10;;;21.10;87.40;;;21.64;55.76;95478.63;5044073;28;20514;-57
2023/09/03 01:04:56;;;;;;;14.33;8.67;;;21.10;87.50;;;21.64;55.84;95471.44;5038774;28;20483;-58
2023/09/03 01:07:24;;;;;;;13.93;8.80;;;21.10;88.30;;;21.65;55.88;95469.56;5036152;28;20452;-57
2023/09/03 01:09:51;;;;;;;9.43;8.20;;;21.10;88.50;;;21.66;56.11;95471.25;5035074;28;20474;-74
2023/09/03 01:12:20;;;;;;;8.73;7.87;;;21.10;88.90;;;21.65;55.92;95482.97;5036336;28;20503;-74
2023/09/03 01:14:54;;;;;;;9.10;8.30;;;21.10;89.30;;;21.64;56.43;95483.97;5039559;28;20506;-76
2023/09/03 01:17:27;;;;;;;11.63;7.87;;;21.10;89.60;;;21.60;56.40;95475.50;5037078;28;20467;-58
2023/09/03 01:20:07;;;;;;;13.13;8.40;;;21.10;89.80;;;21.60;56.57;95485.41;5042087;28;20555;-56
2023/09/03 01:23:21;;;;;;;13.27;7.67;;;21.10;90.00;;;21.57;57.17;95485.78;5039278;28;20463;-76
2023/09/03 01:26:03;;;;;;;15.50;9.03;;;21.00;90.30;;;21.55;56.41;95485.13;5034119;28;20447;-73
2023/09/03 01:28:32;;;;;;;9.17;8.03;;;21.00;90.10;;;21.53;56.02;95488.00;5035820;28;20477;-74
2023/09/03 01:31:02;;;;;;;11.53;8.27;;;21.00;90.20;;;21.51;56.39;95500.75;5039618;28;20838;-76
2023/09/03 01:33:30;;;;;;;8.27;7.47;;;21.00;90.20;;;21.47;56.26;95483.38;5039476;28;20499;-56
2023/09/03 01:35:59;;;;;;;13.70;8.37;;;20.90;90.30;;;21.46;56.99;95492.44;5040797;28;20448;-72
2023/09/03 01:38:26;;;;;;;9.67;8.77;;;20.90;90.40;;;21.43;56.76;95488.31;5040936;28;20468;-57
2023/09/03 01:40:55;;;;;;;8.90;7.97;;;20.90;90.50;;;21.42;56.81;95488.50;5039995;28;20944;-56
2023/09/03 01:43:22;;;;;;;11.70;8.20;;;20.90;90.50;;;21.39;57.00;95484.34;5035484;28;20937;-74
2023/09/03 01:45:56;;;;;;;8.73;7.93;;;20.90;90.60;;;21.36;56.87;95484.72;5038304;28;20451;-73
2023/09/03 01:48:30;;;;;;;8.17;7.50;;;20.90;90.70;;;21.31;56.79;95481.81;5034492;28;20469;-56
2023/09/03 01:51:04;;;;;;;9.87;8.10;;;20.80;90.70;;;21.26;57.00;95482.38;5036182;28;20865;-58
2023/09/03 01:53:37;;;;;;;8.60;7.80;;;20.70;90.80;;;21.22;57.36;95490.97;5034844;28;20484;-59
2023/09/03 01:56:04;;;;;;;8.77;7.97;;;20.70;90.80;;;21.16;56.91;95483.72;5038130;28;20465;-58
2023/09/03 01:58:32;;;;;;;9.27;8.37;;;20.70;90.80;;;21.10;57.22;95480.78;5037712;28;20472;-57
2023/09/03 02:01:01;;;;;;;8.90;8.00;;;20.60;91.10;;;21.04;57.20;95486.09;5035026;28;20822;-74
2023/09/03 02:03:28;;;;;;;9.10;8.30;;;20.60;91.20;;;20.97;57.32;95469.94;5037015;28;20856;-57
2023/09/03 02:05:55;;;;;;;16.07;9.10;;;20.50;91.30;;;20.93;57.46;95482.06;5034135;28;20449;-57
2023/09/03 02:08:23;;;;;;;9.50;8.60;;;20.40;91.30;;;20.88;57.48;95481.78;5035940;28;20468;-58
2023/09/03 02:10:50;;;;;;;8.00;7.30;;;20.40;91.50;;;20.81;57.74;95467.53;5034980;28;20459;-75
2023/09/03 02:13:17;;;;;;;10.33;8.50;;;20.40;91.70;;;20.80;57.64;95474.69;5037327;28;20568;-57
2023/09/03 02:15:45;;;;;;;10.50;8.40;;;20.40;91.70;;;20.76;57.91;95482.28;5034962;28;20459;-56
2023/09/03 02:18:14;;;;;;;8.23;7.43;;;20.30;91.90;;;20.72;57.64;95482.84;5040592;28;20471;-74
2023/09/03 02:20:41;;;;;;;10.10;9.17;;;20.20;92.00;;;20.68;58.29;95482.41;5043942;28;20467;-72
2023/09/03 02:23:08;;;;;;;15.57;10.03;;;20.20;92.30;;;20.64;58.24;95481.06;5032825;28;20830;-57
2023/09/03 02:25:35;;;;;;;11.70;8.27;;;20.10;92.30;;;20.60;58.51;95485.13;5035324;28;20982;-74
2023/09/03 02:28:03;;;;;;;9.97;8.90;;;20.10;92.30;;;20.55;58.25;95483.00;5033502;28;20467;-73
2023/09/03 02:30:30;;;;;;;11.50;7.90;;;20.10;92.40;;;20.51;58.40;95480.91;5037302;28;20522;-73
2023/09/03 02:32:57;;;;;;;9.17;8.30;;;20.00;92.60;;;20.48;58.42;95483.94;5035860;28;21039;-57
2023/09/03 02:35:26;;;;;;;13.43;8.90;;;20.00;92.60;;;20.44;58.50;95477.34;5034406;28;20492;-56
2023/09/03 02:37:53;;;;;;;13.47;7.90;;;20.00;92.60;;;20.42;58.75;95482.88;5035162;28;20932;-72
2023/09/03 02:40:21;;;;;;;9.80;8.80;;;20.00;92.90;;;20.39;58.25;95475.22;5036349;28;20460;-58
2023/09/03 02:42:48;;;;;;;9.63;8.63;;;19.90;92.70;;;20.37;58.81;95482.56;5035889;28;20458;-57
2023/09/03 02:45:15;;;;;;;12.07;7.63;;;19.90;92.80;;;20.34;58.67;95482.94;5034510;28;20472;-73
2023/09/03 02:47:43;;;;;;;11.63;7.67;;;19.90;92.70;;;20.30;58.26;95492.38;5036627;28;20459;-72
2023/09/03 02:50:10;;;;;;;10.73;8.20;;;19.80;92.70;;;20.25;58.62;95495.59;5034426;28;20480;-57
2023/09/03 02:52:39;;;;;;;13.97;8.63;;;19.80;92.80;;;20.21;58.44;95495.09;5036266;28;20444;-75
2023/09/03 02:55:07;;;;;;;14.00;7.90;;;19.80;92.80;;;20.17;58.74;95493.00;5035064;28;20615;-56
2023/09/03 02:57:34;;;;;;;9.10;8.20;;;19.70;92.80;;;20.12;58.55;95490.06;5036969;28;20455;-74
2023/09/03 03:00:02;;;;;;;7.87;7.20;;;19.70;93.00;;;20.06;58.79;95488.94;5034517;28;21071;-57
2023/09/03 03:02:29;;;;;;;8.37;7.57;;;19.60;93.00;;;20.02;58.78;95491.16;5036183;28;20973;-73
2023/09/03 03:04:57;;;;;;;8.03;7.23;;;19.60;93.00;;;19.99;58.46;95488.03;5033908;28;20531;-75
2023/09/03 03:07:25;;;;;;;12.93;8.40;;;19.50;93.00;;;19.94;58.80;95488.56;5043589;28;20868;-58
2023/09/03 03:09:54;;;;;;;11.53;9.00;;;19.50;93.00;;;19.91;59.06;95483.59;5033684;28;20468;-57
2023/09/03 03:12:21;;;;;;;10.80;9.30;;;19.40;93.20;;;19.89;59.03;95485.59;5032139;28;20929;-75
2023/09/03 03:14:49;;;;;;;9.90;8.03;;;19.40;93.40;;;19.85;59.02;95481.66;5038288;28;20492;-74
2023/09/03 03:17:17;;;;;;;13.60;8.57;;;19.40;93.60;;;19.83;59.14;95475.66;5035732;28;20529;-74
2023/09/03 03:19:44;;;;;;;12.07;9.00;;;19.40;93.60;;;19.80;59.44;95468.00;5039813;28;20491;-57
2023/09/03 03:22:13;;;;;;;10.20;8.10;;;19.30;93.50;;;19.78;59.55;95462.84;5032283;28;20455;-59
2023/09/03 03:24:41;;;;;;;9.87;8.93;;;19.30;93.60;;;19.77;59.88;95471.03;5036212;28;20590;-74
2023/09/03 03:27:09;;;;;;;10.60;8.47;;;19.30;93.80;;;19.76;59.63;95474.72;5039647;28;20479;-56
2023/09/03 03:29:37;;;;;;;8.77;7.90;;;19.30;94.00;;;19.73;59.57;95469.75;5036780;28;20487;-58
2023/09/03 03:32:07;;;;;;;8.73;7.93;;;19.30;94.10;;;19.71;59.69;95473.41;5036699;28;20900;-58
2023/09/03 03:34:34;;;;;;;13.77;8.70;;;19.30;94.20;;;19.68;59.88;95473.78;5042894;28;20540;-57
2023/09/03 03:37:01;;;;;;;13.70;7.97;;;19.20;94.20;;;19.66;59.64;95475.81;5039279;28;20532;-74
2023/09/03 03:39:29;;;;;;;12.90;8.90;;;19.20;94.30;;;19.65;59.81;95476.81;5037534;28;21021;-73
2023/09/03 03:41:56;;;;;;;11.97;8.70;;;19.20;94.40;;;19.62;59.61;95484.34;5041369;28;20495;-74
2023/09/03 03:44:24;;;;;;;9.27;7.60;;;19.20;94.40;;;19.61;60.05;95482.69;5048168;28;20486;-57
2023/09/03 03:46:52;;;;;;;9.13;8.27;;;19.20;94.60;;;19.58;60.45;95481.22;5041382;28;20461;-57
2023/09/03 03:49:19;;;;;;;9.27;8.33;;;19.10;94.70;;;19.59;60.12;95474.03;5038354;28;20591;-75
2023/09/03 03:51:46;;;;;;;9.53;8.20;;;19.10;94.70;;;19.57;60.02;95482.22;5040586;28;20467;-74
2023/09/03 03:54:14;;;;;;;12.10;8.53;;;19.10;94.80;;;19.56;60.82;95477.88;5039241;28;20495;-58
2023/09/03 03:56:42;;;;;;;10.60;8.20;;;19.10;94.90;;;19.55;60.87;95478.06;5042731;28;20460;-57
2023/09/03 03:59:09;;;;;;;11.57;9.30;;;19.10;95.00;;;19.53;61.00;95475.59;5038752;28;20476;-73
2023/09/03 04:01:37;;;;;;;10.30;8.43;;;19.10;95.10;;;19.53;60.70;95486.25;5033358;28;20460;-57
2023/09/03 04:04:06;;;;;;;9.90;8.47;;;19.10;95.10;;;19.56;60.91;95479.75;5043107;28;20467;-73
2023/09/03 04:06:33;;;;;;;16.00;8.67;;;19.10;95.20;;;19.58;60.82;95483.91;5039245;28;20464;-70
2023/09/03 04:09:00;;;;;;;9.47;8.53;;;19.10;95.10;;;19.62;60.54;95484.34;5044987;28;20479;-73
2023/09/03 04:11:28;;;;;;;9.27;8.30;;;19.10;95.10;;;19.64;60.72;95488.50;5034676;28;20468;-72
2023/09/03 04:13:55;;;;;;;10.10;8.97;;;19.20;95.20;;;19.66;60.71;95486.47;5049330;28;20526;-73
2023/09/03 04:16:23;;;;;;;8.87;8.07;;;19.20;95.20;;;19.70;60.87;95490.47;5037170;28;20472;-55
2023/09/03 04:18:51;;;;;;;10.20;8.40;;;19.20;95.10;;;19.74;60.81;95490.09;5034517;28;20497;-73
2023/09/03 04:21:18;;;;;;;10.83;9.77;;;19.20;95.10;;;19.76;60.59;95488.06;5039150;28;20452;-56
2023/09/03 04:23:46;;;;;;;12.00;8.47;;;19.30;95.30;;;19.79;60.42;95482.41;5037649;28;20472;-57
2023/09/03 04:26:13;;;;;;;10.33;8.43;;;19.30;95.20;;;19.82;60.57;95484.69;5039009;28;20455;-74
2023/09/03 04:28:40;;;;;;;24.63;9.17;;;19.30;95.20;;;19.83;60.34;95487.19;5043339;28;20550;-74
2023/09/03 04:31:08;;;;;;;12.73;8.50;;;19.30;95.10;;;19.85;60.75;95484.34;5039110;28;20471;-69
2023/09/03 04:33:36;;;;;;;9.47;8.50;;;19.40;95.30;;;19.87;60.61;95487.63;5041449;28;20992;-68
2023/09/03 04:36:05;;;;;;;8.63;7.77;;;19.40;95.30;;;19.88;60.72;95489.31;5037619;28;20572;-69
2023/09/03 04:38:33;;;;;;;10.07;8.77;;;19.40;95.20;;;19.91;60.10;95488.94;5038916;28;20480;-70
2023/09/03 04:41:04;;;;;;;9.40;7.57;;;19.40;95.30;;;19.94;60.53;95485.91;5038651;28;20453;-69
2023/09/03 04:43:32;;;;;;;12.53;8.20;;;19.40;95.30;;;20.00;60.65;95487.00;5035443;28;20515;-72
2023/09/03 04:46:00;;;;;;;10.63;9.53;;;19.50;95.30;;;20.08;60.33;95478.06;5041585;28;20543;-58
2023/09/03 04:48:27;;;;;;;11.13;9.93;;;19.60;95.40;;;20.20;60.60;95482.78;5042609;28;20479;-71
2023/09/03 04:50:57;;;;;;;18.20;9.77;;;19.70;95.50;;;20.29;60.05;95474.66;5035136;28;20449;-59
2023/09/03 04:53:25;;;;;;;15.33;9.33;;;19.80;95.00;;;20.36;59.87;95471.06;5039238;28;20801;-59
2023/09/03 04:55:53;;;;;;;9.10;8.20;;;19.80;94.80;;;20.40;59.65;95472.38;5038628;28;20491;-77
2023/09/03 04:58:20;;;;;;;13.97;8.83;;;19.90;94.80;;;20.47;59.41;95469.78;5042286;28;20468;-58
2023/09/03 05:00:47;;;;;;;11.60;8.33;;;20.00;94.70;;;20.53;59.24;95473.53;5038661;28;20456;-57
2023/09/03 05:03:15;;;;;;;9.80;8.60;;;20.00;94.50;;;20.57;59.48;95462.28;5036090;28;20550;-57
2023/09/03 05:05:42;;;;;;;9.40;8.50;;;20.10;94.60;;;20.62;59.56;95469.75;5043304;28;20989;-74
2023/09/03 05:08:09;;;;;;;9.63;8.73;;;20.10;94.40;;;20.67;58.93;95455.84;5038827;28;20497;-57
2023/09/03 05:10:38;;;;;;;12.30;8.70;;;20.20;94.40;;;20.72;58.92;95459.59;5034938;28;20543;-75
2023/09/03 05:13:06;;;;;;;11.50;9.53;;;20.20;94.20;;;20.77;58.89;95467.91;5037319;28;20460;-57
2023/09/03 05:15:33;;;;;;;12.13;9.90;;;20.30;94.00;;;20.82;58.78;95458.47;5041270;28;20491;-75
2023/09/03 05:18:00;;;;;;;13.03;10.50;;;20.30;94.00;;;20.86;58.73;95467.78;5033149;28;20470;-57
2023/09/03 05:20:28;;;;;;;17.13;9.40;;;20.30;94.00;;;20.91;58.57;95454.66;5039035;28;21022;-57
2023/09/03 05:22:55;;;;;;;9.40;8.50;;;20.40;94.00;;;20.97;58.49;95453.91;5039354;28;20476;-57
2023/09/03 05:25:22;;;;;;;16.20;9.33;;;20.50;94.00;;;21.02;58.44;95454.19;5038354;28;20454;-76
2023/09/03 05:27:51;;;;;;;14.60;11.33;;;20.50;93.80;;;21.08;58.29;95460.59;5035311;28;20452;-57
2023/09/03 05:30:18;;;;;;;9.67;8.67;;;20.60;93.60;;;21.14;58.02;95459.84;5037392;28;20472;-58
2023/09/03 05:32:45;;;;;;;10.73;9.27;;;20.60;93.50;;;21.24;57.98;95457.69;5037974;28;20460;-76
2023/09/03 05:35:12;;;;;;;11.10;9.00;;;20.70;93.50;;;21.39;57.69;95459.44;5035511;28;20558;-57
2023/09/03 05:37:40;;;;;;;19.63;9.40;;;20.80;93.30;;;21.56;57.44;95447.47;5037328;28;20903;-77
2023/09/03 05:40:10;;;;;;;20.10;9.43;;;21.00;93.20;;;21.79;57.04;95457.13;5036750;28;20496;-58
2023/09/03 05:42:37;;;;;;;11.93;9.70;;;21.20;93.10;;;22.05;56.79;95464.50;5037303;28;20547;-76
2023/09/03 05:45:08;;;;;;;9.97;9.00;;;21.40;92.70;;;22.29;56.24;95462.34;5036116;28;20471;-73
2023/09/03 05:47:35;;;;;;;10.03;8.97;;;21.60;92.00;;;22.46;55.71;95469.06;5043666;28;20465;-75
2023/09/03 05:50:02;;;;;;;10.53;8.23;;;21.80;91.70;;;22.66;55.21;95465.66;5036638;28;20473;-56
2023/09/03 05:52:30;;;;;;;10.47;8.43;;;22.00;91.40;;;22.89;54.64;95466.13;5037461;28;20448;-74
2023/09/03 05:54:57;;;;;;;11.70;7.80;;;22.20;91.00;;;23.12;53.93;95475.72;5035768;28;20500;-76
2023/09/03 05:57:24;;;;;;;9.07;8.27;;;22.40;90.50;;;23.30;54.33;95482.34;5036993;28;20509;-57
2023/09/03 05:59:51;;;;;;;11.17;8.97;;;22.60;90.10;;;23.49;53.10;95473.50;5036962;28;20583;-75
2023/09/03 06:02:20;;;;;;;10.30;9.13;;;22.80;89.20;;;23.69;53.25;95475.38;5035396;28;20456;-58
2023/09/03 06:04:50;;;;;;;9.93;8.70;;;23.00;87.90;;;23.85;52.22;95479.53;5037023;28;20477;-77
2023/09/03 06:07:17;;;;;;;11.80;7.97;;;23.10;87.00;;;23.99;51.79;95471.22;5039133;28;20513;-75
2023/09/03 06:09:44;;;;;;;9.10;8.20;;;23.30;85.90;;;24.08;51.36;95471.03;5035835;28;20472;-75
2023/09/03 06:12:12;;;;;;;15.60;8.27;;;23.40;85.00;;;24.24;51.74;95475.94;5036500;28;20455;-76
2023/09/03 06:14:39;;;;;;;8.60;7.47;;;23.50;84.70;;;24.46;51.44;95475.66;5036120;28;20511;-58
2023/09/03 06:17:07;;;;;;;8.67;7.77;;;23.70;83.70;;;24.69;51.01;95476.03;5036194;28;20567;-75
2023/09/03 06:19:35;;;;;;;8.13;7.30;;;23.90;83.10;;;24.92;50.53;95477.38;5038132;28;20472;-57
2023/09/03 06:22:02;;;;;;;8.83;7.03;;;24.20;81.90;;;25.07;49.69;95477.09;5035774;28;20976;-75
2023/09/03 06:24:30;;;;;;;9.07;8.17;;;24.30;80.40;;;25.22;49.51;95479.47;5036917;28;20491;-58
2023/09/03 06:26:57;;;;;;;8.47;7.70;;;24.50;80.10;;;25.37;49.58;95482.72;5035280;28;20456;-76
2023/09/03 06:29:25;;;;;;;12.40;8.00;;;24.60;79.70;;;25.51;49.03;95478.06;5034375;28;20468;-74
2023/09/03 06:31:52;;;;;;;10.53;8.30;;;24.80;78.90;;;25.72;48.46;95484.97;5036693;28;20459;-74
2023/09/03 06:34:20;;;;;;;8.90;7.83;;;24.90;78.40;;;25.96;48.07;95477.09;5038489;28;21031;-76
2023/09/03 06:36:48;;;;;;;9.57;8.47;;;25.20;76.70;;;26.21;47.92;95481.66;5037768;28;20543;-76
2023/09/03 06:39:16;;;;;;;23.60;7.50;;;25.40;76.30;;;26.43;47.60;95482.88;5033762;28;20497;-75
2023/09/03 06:41:44;;;;;;;10.07;8.37;;;25.60;75.00;;;26.62;47.00;95478.31;5034895;28;20530;-76
2023/09/03 06:44:11;;;;;;;8.53;7.67;;;25.80;74.20;;;26.86;46.77;95481.16;5037473;28;20998;-58
2023/09/03 06:46:38;;;;;;;7.63;6.93;;;26.00;73.40;;;27.13;46.47;95478.13;5039755;28;20521;-59
2023/09/03 06:49:05;;;;;;;9.43;7.67;;;26.30;73.00;;;27.42;46.05;95481.03;5033883;28;20906;-76
2023/09/03 06:51:33;;;;;;;9.10;7.77;;;26.60;71.70;;;27.62;45.29;95492.41;5033516;28;20953;-77
2023/09/03 06:54:01;;;;;;;12.23;7.77;;;26.80;70.00;;;27.70;44.96;95489.34;5040371;28;20475;-76
2023/09/03 06:56:29;;;;;;;15.27;7.90;;;26.90;69.00;;;27.78;44.73;95490.91;5032357;28;20574;-59
2023/09/03 06:58:56;;;;;;;7.80;7.10;;;27.00;68.00;;;27.88;44.05;95493.00;5033050;28;20463;-76
2023/09/03 07:01:23;;;;;;;9.93;6.90;;;27.10;66.90;;;27.97;43.71;95488.94;5033748;28;20459;-75
2023/09/03 07:03:50;;;;;;;8.20;7.13;;;27.20;67.00;;;28.16;43.77;95492.34;5036474;28;20479;-57
2023/09/03 07:06:17;;;;;;;7.90;7.10;;;27.30;67.10;;;28.37;43.63;95492.81;5034229;28;20451;-58
2023/09/03 07:08:45;;;;;;;8.80;7.90;;;27.50;66.20;;;28.52;42.92;95492.31;5041348;28;20507;-76
2023/09/03 07:11:13;;;;;;;8.93;7.93;;;27.70;65.50;;;28.55;42.59;95484.56;5044048;28;20965;-74
2023/09/03 07:13:40;;;;;;;13.83;7.87;;;27.80;64.70;;;28.70;42.67;95485.97;5039112;28;20530;-76
2023/09/03 07:16:08;;;;;;;8.90;7.63;;;27.90;65.00;;;29.00;42.37;95484.94;5038609;28;20522;-76
2023/09/03 07:18:35;;;;;;;9.63;7.67;;;28.10;64.80;;;29.26;41.98;95489.81;5041016;28;20482;-59
2023/09/03 07:21:06;;;;;;;8.30;7.50;;;28.40;63.40;;;29.45;41.14;95495.03;5042409;28;20930;-58
2023/09/03 07:23:34;;;;;;;10.97;7.70;;;28.60;62.90;;;29.68;41.57;95480.50;5039859;28;21076;-60
2023/09/03 07:26:03;;;;;;;11.80;6.80;;;28.80;62.70;;;29.98;40.85;95480.25;5039469;28;20518;-60
2023/09/03 07:28:32;;;;;;;12.00;7.77;;;29.00;62.10;;;30.25;40.60;95479.53;5038134;28;20586;-76
2023/09/03 07:30:59;;;;;;;13.13;6.37;;;29.40;61.60;;;30.55;40.32;95483.78;5039573;28;21032;-74
2023/09/03 07:33:27;;;;;;;9.13;6.60;;;29.60;61.10;;;30.90;40.12;95491.56;5041558;28;20483;-58
2023/09/03 07:35:54;;;;;;;7.17;5.80;;;29.90;60.60;;;31.25;39.40;95486.84;5037875;28;20262;-58
2023/09/03 07:38:21;;;;;;;16.47;7.20;;;30.30;59.40;;;31.45;38.72;95483.53;5040969;28;20229;-75
2023/09/03 07:40:49;;;;;;;7.73;7.03;;;30.60;58.10;;;31.58;38.16;95488.56;5039107;28;20205;-76
2023/09/03 07:43:16;;;;;;;10.00;8.00;;;30.70;57.60;;;31.70;37.85;95485.69;5038588;28;20229;-59
2023/09/03 07:45:45;;;;;;;11.30;6.70;;;30.80;57.40;;;31.83;37.28;95475.44;5039236;28;20233;-57
2023/09/03 07:48:13;;;;;;;6.73;6.30;;;31.00;57.00;;;32.08;37.69;95482.97;5038855;28;20209;-59
2023/09/03 07:50:40;;;;;;;21.23;6.43;;;31.20;57.10;;;32.49;37.19;95486.81;5038898;28;20201;-75
2023/09/03 07:53:07;;;;;;;7.07;6.40;;;31.50;56.50;;;32.88;36.49;95488.41;5038511;28;20317;-75
2023/09/03 07:55:35;;;;;;;9.57;6.57;;;32.00;55.80;;;33.14;36.13;95494.78;5040201;28;20302;-76
2023/09/03 07:58:02;;;;;;;10.90;6.63;;;32.40;54.70;;;33.40;36.44;95489.41;5039908;28;20235;-58
2023/09/03 08:00:29;;;;;;;10.45;7.63;;;32.70;54.70;;;33.81;35.66;95494.97;5041327;28;20274;-73
2023/09/03 08:02:58;;;;;;;11.90;7.50;;;33.20;54.40;;;34.34;34.83;95491.97;5047579;28;20196;-58
2023/09/03 08:05:25;;;;;;;21.80;7.50;;;33.70;53.30;;;34.84;34.41;95492.13;5041247;28;20206;-57
2023/09/03 08:07:52;;;;;;;13.05;6.40;;;34.20;52.50;;;35.17;34.34;95489.81;5049174;28;20598;-75
2023/09/03 08:10:20;;;;;;;12.05;6.40;;;34.60;51.70;;;35.43;33.45;95492.44;5040807;28;20205;-75
2023/09/03 08:12:47;;;;;;;19.20;6.15;;;34.80;51.00;;;35.72;32.97;95487.03;5039254;28;20247;-75
2023/09/03 08:15:15;;;;;;;6.60;6.00;;;35.10;50.00;;;36.08;32.58;95487.59;5042114;28;20236;-73
2023/09/03 08:17:42;;;;;;;8.60;6.20;;;35.50;49.80;;;36.47;32.35;95482.34;5036352;28;20232;-58
2023/09/03 08:20:12;;;;;;;11.38;5.53;;;35.90;48.80;;;36.88;32.00;95481.91;5040119;28;20227;-73
2023/09/03 08:22:39;;;;;;;11.32;5.68;;;36.40;48.80;;;37.19;31.25;95476.84;5034055;28;20234;-58
2023/09/03 08:25:08;;;;;;;8.00;6.40;;;36.80;47.80;;;37.54;30.62;95480.25;5040770;28;20345;-76
2023/09/03 08:27:35;;;;;;;10.02;5.45;;;37.20;46.90;;;37.90;29.81;95471.47;5037132;28;20209;-76
2023/09/03 08:30:03;;;;;;;8.48;5.30;;;37.70;45.90;;;38.20;29.77;95469.34;5035967;28;20232;-77
2023/09/03 08:32:30;;;;;;;11.10;5.50;;;38.00;45.50;;;38.42;29.41;95467.88;5036445;28;20298;-59
2023/09/03 08:34:58;;;;;;;7.70;4.60;;;38.30;44.60;;;38.62;29.06;95464.72;5032263;28;20318;-75
2023/09/03 08:37:28;;;;;;;8.95;5.97;;;38.50;44.20;;;38.76;28.38;95463.97;5041408;28;20232;-61
2023/09/03 08:39:55;;;;;;;12.40;6.10;;;38.70;43.50;;;38.90;27.94;95462.84;5036412;28;20244;-60
2023/09/03 08:42:23;;;;;;;5.75;5.25;;;38.80;43.10;;;38.90;27.55;95457.34;5035774;28;20204;-59
2023/09/03 08:44:53;;;;;;;5.55;5.05;;;38.80;42.70;;;38.85;27.58;95453.88;5036003;28;20251;-58
2023/09/03 08:47:20;;;;;;;10.40;5.78;;;38.60;42.60;;;38.90;27.59;95440.84;5037865;28;20251;-58
2023/09/03 08:49:47;;;;;;;10.25;5.88;;;38.50;42.40;;;39.00;27.85;95450.00;5036162;28;20657;-74
2023/09/03 08:52:15;;;;;;;5.60;5.10;;;38.50;42.00;;;39.09;27.12;95443.47;5039271;28;20466;-75
2023/09/03 08:54:44;;;;;;;5.00;4.53;;;38.50;41.60;;;39.17;26.77;95439.19;5036842;28;20234;-57
2023/09/03 08:57:12;;;;;;;8.73;4.65;;;38.50;40.80;;;39.18;25.87;95437.25;5040638;28;20296;-58
2023/09/03 08:59:39;;;;;;;4.70;4.20;;;38.60;40.50;;;39.15;25.23;95441.44;5037046;28;20229;-73
2023/09/03 09:02:09;;;;;;;4.18;3.88;;;38.60;40.20;;;39.09;25.09;95432.47;5039789;28;20201;-74
2023/09/03 09:04:37;;;;;;;4.40;3.95;;;38.40;39.00;;;39.11;25.29;95429.41;5035655;28;20229;-60
2023/09/03 09:07:05;;;;;;;4.47;4.18;;;38.40;38.70;;;39.13;24.73;95424.41;5038016;28;20208;-58
2023/09/03 09:09:32;;;;;;;4.75;4.30;;;38.40;38.70;;;39.19;25.12;95420.41;5043302;28;20225;-58
2023/09/03 09:12:07;;;;;;;5.35;4.85;;;38.40;38.70;;;39.27;24.57;95410.63;5036432;28;20201;-75
2023/09/03 09:14:39;;;;;;;6.55;4.95;;;38.40;38.60;;;39.37;24.53;95415.09;5034966;28;20220;-59
2023/09/03 09:17:13;;;;;;;5.68;5.28;;;38.50;38.60;;;39.43;24.66;95414.66;5031678;28;20221;-59
2023/09/03 09:19:40;;;;;;;6.47;5.97;;;38.60;38.10;;;39.49;24.65;95414.53;5040588;28;20225;-74
2023/09/03 09:22:08;;;;;;;4.85;4.55;;;38.70;38.50;;;39.54;24.47;95414.41;5040785;28;20590;-57
2023/09/03 09:24:42;;;;;;;5.20;4.80;;;38.70;38.20;;;39.57;24.16;95414.63;5040219;28;20232;-72
2023/09/03 09:27:16;;;;;;;8.50;5.47;;;38.70;37.50;;;39.58;24.23;95407.97;5038176;28;20684;-58
2023/09/03 09:29:43;;;;;;;7.20;5.28;;;38.80;37.60;;;39.60;24.08;95408.50;5033653;28;20225;-59
2023/09/03 09:32:19;;;;;;;7.15;5.43;;;38.70;37.80;;;39.65;23.49;95409.47;5035392;28;20216;-75
2023/09/03 09:34:47;;;;;;;5.47;5.07;;;38.80;36.30;;;39.62;24.30;95397.97;5038330;28;20228;-74
2023/09/03 09:37:14;;;;;;;5.50;5.10;;;38.80;37.60;;;39.59;24.00;95395.84;5034886;28;20305;-74
2023/09/03 09:39:45;;;;;;;5.95;5.22;;;38.70;37.30;;;39.59;24.49;95393.09;5037925;28;20228;-75
2023/09/03 09:42:18;;;;;;;5.47;5.05;;;38.80;37.30;;;39.65;24.66;95395.72;5034742;28;20197;-58
2023/09/03 09:44:59;;;;;;;5.63;5.15;;;38.80;37.30;;;39.58;22.99;95394.22;5039456;28;20232;-58
2023/09/03 09:47:26;;;;;;;6.47;5.43;;;38.80;36.20;;;39.34;23.88;95394.50;5031369;28;20295;-76
2023/09/03 09:49:54;;;;;;;8.75;4.72;;;38.50;35.90;;;38.86;23.41;95384.81;5038606;28;20239;-57
2023/09/03 09:52:21;;;;;;;5.38;4.93;;;38.20;35.30;;;38.48;23.24;95376.75;5040273;28;20285;-74
2023/09/03 09:54:49;;;;;;;5.18;4.80;;;37.80;35.40;;;38.07;23.27;95373.97;5043046;28;20346;-75
2023/09/03 09:57:22;;;;;;;5.32;4.82;;;37.50;35.50;;;37.79;23.26;95374.72;5037207;28;20287;-75
2023/09/03 09:59:53;;;;;;;7.07;6.38;;;37.10;35.20;;;37.56;23.44;95359.19;5036485;28;20224;-74
2023/09/03 10:02:22;;;;;;;7.03;6.43;;;36.90;35.60;;;37.45;23.53;95355.78;5040618;28;20208;-73
2023/09/03 10:04:51;;;;;;;6.32;5.93;;;36.70;36.00;;;37.36;23.56;95363.06;5036585;28;20220;-59
2023/09/03 10:07:19;;;;;;;6.05;5.55;;;36.60;35.90;;;37.14;23.64;95354.28;5037621;28;20205;-59
2023/09/03 10:09:46;;;;;;;5.63;5.22;;;36.40;36.00;;;36.94;24.04;95349.13;5037437;28;20327;-59
2023/09/03 10:12:14;;;;;;;8.10;5.22;;;36.20;36.50;;;36.88;24.20;95347.56;5035839;28;20224;-75
2023/09/03 10:14:43;;;;;;;6.30;5.82;;;36.20;36.90;;;36.82;23.83;95340.53;5036834;28;20223;-74
2023/09/03 10:17:10;;;;;;;5.53;5.03;;;36.00;36.70;;;36.73;24.08;95335.69;5036596;28;20257;-58
2023/09/03 10:19:43;;;;;;;5.60;5.20;;;35.90;36.60;;;36.56;24.37;95333.44;5037554;28;21048;-58